Eastern Lake Erie: Past 24 Hour Conditions
Sault Ste. Marie Airport
06:00 AM EDT 13 April 2026| Date / Time (EDT) |
Wind(knots) | Conditions | Visibility(km) | Pressure(kPa) | Air temp(°C) | Relative humidity(%) | Dew point(°C) |
|---|---|---|---|---|---|---|---|
| 13 April 2026 | |||||||
| 6:00 | WSW 14 | Mist | 1 | 100.2 | 8 | 100 | 8 |
| 5:00 | SW 10 gusts 18 | Fog | 0.2 | 100.1 | 10 | 100 | 10 |
| 4:00 | SSW 13 gusts 23 | Fog | 0.8 | 100.1 | 11 | 100 | 11 |
| 3:00 | SSW 8 gusts 15 | Mist | 1 | 100.1 | 10 | 100 | 10 |
| 2:00 | E 5 | Mist | 1 | 100.2 | 6 | 100 | 6 |
| 1:00 | E 6 | Light Drizzle and Fog | 0.6 | 100.3 | 4 | 100 | 4 |
| 0:00 | E 8 | Light Drizzle and Fog | 0.6 | 100.3 | 3 | 100 | 3 |
| 12 April 2026 | |||||||
| 23:00 | E 8 | Light Drizzle and Fog | 0.6 | 100.4 | 2 | 99 | 2 |
| 22:00 | E 8 | Mist | 1 | 100.5 | 3 | 99 | 3 |
| 21:00 | ENE 12 | Mist | 3 | 100.5 | 2 | 98 | 2 |
| 20:00 | E 10 gusts 17 | Mist | 3 | 100.6 | 3 | 98 | 2 |
| 19:00 | E 10 gusts 16 | Light Rain | 3 | 100.8 | 2 | 98 | 2 |
| 18:00 | E 9 gusts 18 | Mostly Cloudy | 13 | 100.9 | 3 | 96 | 2 |
| 17:00 | E 12 | Mostly Cloudy | 13 | 100.9 | 3 | 95 | 2 |
| 16:00 | E 13 gusts 18 | Light Rain | 13 | 100.9 | 2 | 95 | 2 |
| 15:00 | ESE 13 gusts 22 | Mostly Cloudy | 13 | 101.1 | 3 | 95 | 2 |
| 14:00 | ESE 12 gusts 19 | Mostly Cloudy | 13 | 101.3 | 2 | 96 | 2 |
| 13:00 | ESE 10 gusts 22 | Mostly Cloudy | 13 | 101.4 | 2 | 97 | 2 |
| 12:00 | ESE 12 gusts 22 | Mostly Cloudy | 13 | 101.6 | 2 | 95 | 2 |
| 11:00 | ESE 10 gusts 20 | Light Rain | 13 | 101.7 | 2 | 95 | 2 |
| 10:00 | E 10 gusts 17 | Light Rain | 3 | 101.8 | 2 | 96 | 1 |
| 9:00 | ESE 10 gusts 17 | Light Rain | 16 | 101.9 | 2 | 94 | 1 |
| 8:00 | ESE 9 gusts 15 | Light Rain | 11 | 101.9 | 2 | 93 | 1 |
| 7:00 | ESE 11 gusts 18 | Light Rain | 10 | 102.0 | 2 | 91 | 1 |
| 6:00 | ESE 10 gusts 19 | Light Rain | 10 | 102.1 | 2 | 92 | 1 |
If you require additional historical weather information, please visit Climate Data Online
Zoom-in to make a selection
Legend:
Great Lakes - Lake Huron Area
Another Region
Features
Colour-coded weather alerts
Learn more about weather alerting in Canada
- Date modified: